Acequia, Idaho
Current Conditions -  °F | °C
As of 8:53 PM on Friday 28 Nov 2014 (Local Time) from KBYI Reporting Station
Broken Clouds Broken Clouds  
Wind Chill: 12°   Ceiling: 12000
Heat Index: 12°   Visibility: 10mi
Dew Point: -8°   Wind: 12mph
Humidity: 25%   Direction: 210°SSW
Pressure: 29.68"   Gusts: NA
Location:  42.6416°N, 113.637°W
Report Text: KBYI 290353Z AUTO 21010KT 10SM BKN120 12/M08 A2968 RMK AO2 SLP027 T01171078
Loading
Personal Weather Stations






























Interactive Weather Map New forecast layout! Learn more

10-Day Weather Forecast

Advertisements
Track Severe Weather on mobile